createdAt,value
2022-10-17T00:00:43.838Z,18.80
2022-10-17T00:03:10.912Z,18.90
2022-10-17T00:05:42.696Z,19.00
2022-10-17T00:08:10.470Z,19.10
2022-10-17T00:10:37.566Z,18.80
2022-10-17T00:13:04.738Z,19.50
2022-10-17T00:15:32.359Z,19.50
2022-10-17T00:18:00.308Z,19.50
2022-10-17T00:20:27.256Z,19.70
2022-10-17T00:22:54.266Z,19.90
2022-10-17T00:25:21.222Z,20.10
2022-10-17T00:27:48.168Z,21.30
2022-10-17T00:30:16.419Z,20.50
2022-10-17T00:32:43.495Z,21.60
2022-10-17T00:35:10.928Z,21.00
2022-10-17T00:37:38.068Z,21.10
2022-10-17T00:40:06.686Z,21.20
2022-10-17T00:42:33.731Z,21.30
2022-10-17T00:45:18.931Z,21.40
2022-10-17T00:47:52.985Z,21.20
2022-10-17T00:50:20.436Z,21.30
2022-10-17T00:52:48.917Z,21.60
2022-10-17T00:55:25.219Z,21.90
2022-10-17T00:57:53.268Z,21.60
2022-10-17T01:00:20.988Z,22.20
2022-10-17T01:02:48.572Z,22.10
2022-10-17T01:05:16.844Z,22.20
2022-10-17T01:07:44.907Z,22.20
2022-10-17T01:10:13.114Z,22.10
2022-10-17T01:12:42.955Z,22.30
2022-10-17T01:15:47.574Z,23.00
2022-10-17T01:18:39.262Z,22.30
2022-10-17T01:21:21.394Z,23.00
2022-10-17T01:23:48.278Z,22.90
2022-10-17T01:26:27.251Z,22.80
2022-10-17T01:29:18.436Z,22.20
2022-10-17T01:32:06.606Z,22.40
2022-10-17T01:34:42.677Z,22.70
2022-10-17T01:37:46.712Z,22.70
2022-10-17T01:40:29.595Z,22.70
2022-10-17T01:43:11.546Z,23.40
2022-10-17T01:45:49.225Z,22.60
2022-10-17T01:48:24.028Z,22.60
2022-10-17T01:51:01.530Z,22.50
2022-10-17T01:53:36.951Z,22.50
2022-10-17T01:56:08.715Z,22.40
2022-10-17T01:58:47.522Z,22.50
2022-10-17T02:01:14.981Z,22.40
2022-10-17T02:03:43.988Z,22.40
2022-10-17T02:06:10.949Z,22.40
2022-10-17T02:08:42.323Z,22.50
2022-10-17T02:11:29.808Z,22.40
2022-10-17T02:14:27.191Z,22.50
2022-10-17T02:17:15.951Z,22.30
2022-10-17T02:20:01.921Z,22.60
2022-10-17T02:22:49.309Z,22.40
2022-10-17T02:25:41.580Z,22.30
2022-10-17T02:28:14.381Z,22.20
2022-10-17T02:30:48.257Z,23.20
2022-10-17T02:33:25.584Z,23.40
2022-10-17T02:35:57.865Z,23.80
2022-10-17T02:38:27.044Z,23.90
2022-10-17T02:40:55.030Z,24.20
2022-10-17T02:43:23.046Z,24.50
2022-10-17T02:45:51.531Z,24.60
2022-10-17T02:48:22.632Z,24.60
2022-10-17T02:51:03.459Z,24.70
2022-10-17T02:53:53.208Z,24.60
2022-10-17T02:56:21.617Z,24.30
2022-10-17T02:58:56.274Z,24.90
2022-10-17T03:01:24.323Z,25.10
2022-10-17T03:03:51.336Z,25.70
2022-10-17T03:06:18.282Z,26.10
2022-10-17T03:08:48.491Z,26.10
2022-10-17T03:11:15.558Z,26.20
2022-10-17T03:13:42.454Z,25.80
2022-10-17T03:16:09.327Z,25.70
2022-10-17T03:18:36.242Z,25.80
2022-10-17T03:21:03.165Z,26.10
2022-10-17T03:23:30.044Z,26.30
2022-10-17T03:25:56.964Z,26.30
2022-10-17T03:28:24.063Z,26.30
2022-10-17T03:30:51.060Z,26.40
2022-10-17T03:33:17.928Z,26.40
2022-10-17T03:35:44.864Z,25.90
2022-10-17T03:38:11.791Z,26.10
2022-10-17T03:40:38.750Z,26.20
2022-10-17T03:43:06.039Z,26.30
2022-10-17T03:45:33.194Z,26.40
2022-10-17T03:48:00.265Z,26.10
2022-10-17T03:50:27.228Z,26.50
2022-10-17T03:52:54.142Z,26.60
2022-10-17T03:55:20.964Z,26.70
2022-10-17T03:57:47.844Z,26.90
2022-10-17T04:00:15.148Z,26.70
2022-10-17T04:02:42.333Z,26.40
2022-10-17T04:05:09.394Z,26.60
2022-10-17T04:07:37.683Z,26.80
2022-10-17T04:10:05.479Z,27.00
2022-10-17T04:12:32.569Z,27.60
2022-10-17T04:14:59.508Z,27.30
2022-10-17T04:17:26.423Z,27.20
2022-10-17T04:19:53.329Z,27.50
2022-10-17T04:22:20.203Z,27.60
2022-10-17T04:24:47.163Z,27.70
2022-10-17T04:27:14.202Z,28.00
2022-10-17T04:29:41.223Z,28.10
2022-10-17T04:32:08.205Z,28.30
2022-10-17T04:34:35.215Z,28.50
2022-10-17T04:37:02.466Z,28.60
2022-10-17T04:39:30.113Z,28.50
2022-10-17T04:41:57.134Z,28.70
2022-10-17T04:44:24.117Z,28.90
2022-10-17T04:46:51.174Z,28.80
2022-10-17T04:49:18.147Z,28.80
2022-10-17T04:51:44.997Z,28.80
2022-10-17T04:54:11.836Z,29.00
2022-10-17T04:56:38.678Z,29.10
2022-10-17T04:59:05.573Z,29.10
2022-10-17T05:01:35.598Z,29.30
2022-10-17T05:04:02.439Z,29.60
2022-10-17T05:06:29.408Z,30.20
2022-10-17T05:08:57.800Z,30.80
2022-10-17T05:11:27.443Z,31.20
2022-10-17T05:13:56.625Z,31.80
2022-10-17T05:16:24.599Z,32.40
2022-10-17T05:18:53.581Z,33.10
2022-10-17T05:21:21.881Z,33.60
2022-10-17T05:23:49.260Z,33.70
2022-10-17T05:26:16.410Z,33.80
2022-10-17T05:28:43.333Z,35.40
2022-10-17T05:31:11.478Z,33.90
2022-10-17T05:33:39.659Z,34.50
2022-10-17T05:36:07.899Z,34.70
2022-10-17T05:38:34.994Z,34.80
2022-10-17T05:41:04.825Z,34.70
2022-10-17T05:43:33.445Z,34.80
2022-10-17T05:46:03.923Z,34.80
2022-10-17T05:48:30.852Z,34.10
2022-10-17T05:51:00.008Z,35.10
2022-10-17T05:53:29.828Z,35.20
2022-10-17T05:55:58.763Z,35.40
2022-10-17T05:58:45.374Z,36.00
2022-10-17T06:01:13.760Z,36.20
2022-10-17T06:03:40.672Z,36.30
2022-10-17T06:06:10.165Z,36.30
2022-10-17T06:08:37.418Z,36.00
2022-10-17T06:11:07.666Z,36.00
2022-10-17T06:13:37.337Z,35.80
2022-10-17T06:16:04.453Z,35.60
2022-10-17T06:18:31.543Z,35.40
2022-10-17T06:21:09.934Z,35.40
2022-10-17T06:23:37.159Z,35.30
2022-10-17T06:26:05.756Z,35.70
2022-10-17T06:28:33.454Z,36.00
2022-10-17T06:31:03.822Z,36.10
2022-10-17T06:33:30.830Z,36.60
2022-10-17T06:35:57.978Z,37.00
2022-10-17T06:38:24.935Z,37.80
2022-10-17T06:40:53.935Z,38.40
2022-10-17T06:43:25.579Z,40.00
2022-10-17T06:45:54.840Z,41.50
2022-10-17T06:48:21.893Z,43.80
2022-10-17T06:50:48.895Z,44.60
2022-10-17T06:53:15.916Z,43.50
2022-10-17T06:55:43.063Z,41.40
2022-10-17T06:58:10.011Z,39.00
2022-10-17T07:00:37.104Z,36.10
2022-10-17T07:03:04.274Z,33.80
2022-10-17T07:05:31.256Z,32.70
2022-10-17T07:07:58.151Z,29.30
2022-10-17T07:10:26.264Z,27.30
2022-10-17T07:12:53.138Z,25.20
2022-10-17T07:15:20.031Z,24.80
2022-10-17T07:17:50.838Z,21.50
2022-10-17T07:20:17.771Z,19.60
2022-10-17T07:22:44.672Z,17.20
2022-10-17T07:25:11.641Z,15.60
2022-10-17T07:27:38.626Z,14.90
2022-10-17T07:30:06.289Z,12.20
2022-10-17T07:32:33.163Z,10.40
2022-10-17T07:35:00.136Z,8.60
2022-10-17T07:37:27.225Z,5.70
2022-10-17T07:39:54.329Z,4.20
2022-10-17T07:42:21.253Z,4.20
2022-10-17T07:44:48.204Z,4.20
2022-10-17T07:47:15.271Z,2.50
2022-10-17T07:49:44.123Z,1.80
2022-10-17T07:52:15.608Z,1.00
2022-10-17T07:54:43.237Z,1.00
2022-10-17T07:57:10.604Z,1.00
2022-10-17T07:59:38.367Z,1.00
2022-10-17T08:02:05.601Z,1.00
2022-10-17T08:04:33.675Z,1.00
2022-10-17T08:07:11.957Z,1.00
2022-10-17T08:09:47.447Z,1.00
2022-10-17T08:12:14.983Z,1.00
2022-10-17T08:14:43.035Z,1.00
2022-10-17T08:17:10.562Z,1.00
2022-10-17T08:19:41.044Z,1.00
2022-10-17T08:22:08.157Z,1.00
2022-10-17T08:24:35.128Z,1.00
2022-10-17T08:27:02.237Z,1.00
2022-10-17T08:29:29.343Z,1.00
2022-10-17T08:32:01.066Z,1.00
2022-10-17T08:34:28.981Z,1.00
2022-10-17T08:36:56.144Z,1.00
2022-10-17T08:39:23.046Z,1.00
2022-10-17T08:42:03.316Z,1.00
2022-10-17T08:44:39.132Z,1.00
2022-10-17T08:47:28.302Z,1.00
2022-10-17T08:50:01.976Z,1.00
2022-10-17T08:52:44.039Z,1.00
2022-10-17T08:55:42.757Z,1.00
2022-10-17T08:58:24.502Z,1.00
2022-10-17T09:01:13.623Z,1.00
2022-10-17T09:03:49.561Z,1.00
2022-10-17T09:06:30.117Z,1.00
2022-10-17T09:09:19.003Z,1.00
2022-10-17T09:11:54.892Z,1.00
2022-10-17T09:15:00.087Z,1.00
2022-10-17T09:17:30.063Z,1.00
2022-10-17T09:20:03.648Z,1.00
2022-10-17T09:22:37.165Z,1.00
2022-10-17T09:25:11.257Z,1.00
2022-10-17T09:27:46.707Z,1.00
2022-10-17T09:30:44.044Z,1.00
2022-10-17T09:33:23.258Z,1.00
2022-10-17T09:36:02.001Z,1.00
2022-10-17T09:38:38.870Z,1.00
2022-10-17T09:41:39.166Z,1.00
2022-10-17T09:44:29.269Z,1.00
2022-10-17T09:47:18.375Z,1.00
2022-10-17T09:49:47.281Z,1.00
2022-10-17T09:52:21.575Z,1.00
2022-10-17T09:54:49.658Z,1.00
2022-10-17T09:57:18.004Z,1.00
2022-10-17T10:00:00.396Z,1.00
2022-10-17T10:02:29.750Z,1.00
2022-10-17T10:05:16.340Z,1.00
2022-10-17T10:07:45.653Z,1.00
2022-10-17T10:10:28.070Z,1.00
2022-10-17T10:13:06.329Z,1.00
2022-10-17T10:15:37.870Z,1.00
2022-10-17T10:18:24.825Z,1.00
2022-10-17T10:21:08.933Z,1.00
2022-10-17T10:23:46.388Z,1.00
2022-10-17T10:26:25.942Z,1.00
2022-10-17T10:28:55.116Z,1.00
2022-10-17T10:31:34.513Z,1.00
2022-10-17T10:34:11.343Z,1.00
2022-10-17T10:36:59.149Z,1.00
2022-10-17T10:39:47.619Z,1.00
2022-10-17T10:42:34.080Z,1.00
2022-10-17T10:45:11.939Z,1.00
2022-10-17T10:47:57.305Z,1.00
2022-10-17T10:50:45.457Z,1.00
2022-10-17T10:53:21.756Z,1.00
2022-10-17T10:55:53.783Z,1.00
2022-10-17T10:58:51.864Z,1.00
2022-10-17T11:01:27.612Z,1.00
2022-10-17T11:04:06.982Z,1.00
2022-10-17T11:06:40.145Z,1.00
2022-10-17T11:09:23.211Z,1.00
2022-10-17T11:12:04.889Z,1.00
2022-10-17T11:14:39.256Z,1.00
2022-10-17T11:17:34.846Z,1.00
2022-10-17T11:20:25.260Z,1.00
2022-10-17T11:23:02.610Z,1.00
2022-10-17T11:25:36.484Z,1.00
2022-10-17T11:28:11.619Z,1.00
2022-10-17T11:31:07.182Z,1.00
2022-10-17T11:33:54.467Z,1.00
2022-10-17T11:36:26.560Z,1.00
2022-10-17T11:39:07.121Z,1.00
2022-10-17T11:41:52.587Z,1.00
2022-10-17T11:44:34.335Z,1.00
2022-10-17T11:47:06.045Z,1.00
2022-10-17T11:49:41.918Z,1.00
2022-10-17T11:52:56.561Z,1.00
2022-10-17T11:55:26.614Z,1.00
2022-10-17T11:57:59.711Z,1.00
2022-10-17T12:00:34.138Z,1.00
2022-10-17T12:03:25.918Z,1.00
2022-10-17T12:06:19.399Z,1.00
2022-10-17T12:08:46.564Z,1.00
2022-10-17T12:11:28.571Z,1.00
2022-10-17T12:13:56.878Z,1.00
2022-10-17T12:16:23.758Z,1.00
2022-10-17T12:19:03.102Z,1.00
2022-10-17T12:22:02.043Z,1.00
2022-10-17T12:24:42.737Z,1.00
2022-10-17T12:27:22.963Z,1.00
2022-10-17T12:29:50.929Z,1.00
2022-10-17T12:32:17.842Z,1.00
2022-10-17T12:34:56.175Z,1.00
2022-10-17T12:37:50.519Z,1.00
2022-10-17T12:40:36.028Z,1.00
2022-10-17T12:43:23.913Z,1.00
2022-10-17T12:46:09.501Z,1.00
2022-10-17T12:48:39.524Z,1.00
2022-10-17T12:54:16.096Z,1.00
2022-10-17T12:56:46.694Z,1.00
2022-10-17T12:59:26.036Z,1.00
2022-10-17T13:01:58.945Z,1.00
2022-10-17T13:04:28.480Z,1.00
2022-10-17T13:06:58.870Z,1.00
2022-10-17T13:09:27.610Z,1.00
2022-10-17T13:11:57.907Z,1.00
2022-10-17T13:14:26.031Z,1.00
2022-10-17T13:16:58.460Z,1.00
2022-10-17T13:19:30.041Z,1.00
2022-10-17T13:22:06.868Z,1.00
2022-10-17T13:24:35.480Z,1.00
2022-10-17T13:27:02.811Z,1.00
2022-10-17T13:29:32.020Z,1.00
2022-10-17T13:32:01.744Z,1.00
2022-10-17T13:34:29.196Z,1.00
2022-10-17T13:36:59.236Z,1.00
2022-10-17T13:39:44.972Z,1.00
2022-10-17T13:42:25.621Z,1.00
2022-10-17T13:44:52.792Z,1.00
2022-10-17T13:47:25.579Z,1.00
2022-10-17T13:49:55.377Z,1.00
2022-10-17T13:52:26.721Z,1.00
2022-10-17T13:54:54.513Z,1.00
2022-10-17T13:57:27.990Z,1.00
2022-10-17T14:00:01.801Z,1.00
2022-10-17T14:02:30.869Z,1.00
2022-10-17T14:05:19.064Z,1.00
2022-10-17T14:08:11.156Z,1.00
2022-10-17T14:10:41.322Z,1.00
2022-10-17T14:13:17.629Z,1.00
2022-10-17T14:15:46.389Z,1.00
2022-10-17T14:18:23.812Z,1.00
2022-10-17T14:23:43.773Z,1.00
2022-10-17T14:26:17.657Z,1.00
2022-10-17T14:28:51.346Z,1.00
2022-10-17T14:31:20.921Z,1.00
2022-10-17T14:33:50.989Z,1.00
2022-10-17T14:36:20.271Z,1.00
2022-10-17T14:38:50.101Z,1.00
2022-10-17T14:41:43.251Z,1.00
2022-10-17T14:44:21.010Z,1.00
2022-10-17T14:46:52.204Z,1.00
2022-10-17T14:49:27.495Z,1.00
2022-10-17T14:52:24.431Z,1.00
2022-10-17T14:54:51.347Z,1.00
2022-10-17T14:57:47.778Z,1.00
2022-10-17T15:00:19.803Z,1.00
2022-10-17T15:02:48.128Z,1.00
2022-10-17T15:05:16.116Z,1.00
2022-10-17T15:07:43.704Z,1.00
2022-10-17T15:10:32.934Z,1.00
2022-10-17T15:13:16.413Z,1.00
2022-10-17T15:15:51.874Z,1.00
2022-10-17T15:18:19.471Z,1.00
2022-10-17T15:20:46.413Z,1.00
2022-10-17T15:23:13.355Z,1.00
2022-10-17T15:25:40.361Z,1.00
2022-10-17T15:28:08.035Z,1.00
2022-10-17T15:30:36.505Z,1.00
2022-10-17T15:33:03.560Z,1.00
2022-10-17T15:35:30.838Z,1.00
2022-10-17T15:37:58.003Z,1.00
2022-10-17T15:40:30.533Z,1.00
2022-10-17T15:42:57.947Z,1.00
2022-10-17T15:45:25.040Z,1.00
2022-10-17T15:47:58.819Z,1.00
2022-10-17T15:50:25.842Z,1.00
2022-10-17T15:52:52.754Z,1.00
2022-10-17T15:55:20.397Z,1.00
2022-10-17T15:57:48.942Z,1.00
2022-10-17T16:00:22.437Z,1.00
2022-10-17T16:02:49.968Z,1.00
2022-10-17T16:05:23.355Z,1.00
2022-10-17T16:07:50.448Z,1.00
2022-10-17T16:10:17.982Z,1.00
2022-10-17T16:12:45.495Z,1.00
2022-10-17T16:15:20.712Z,1.00
2022-10-17T16:17:47.573Z,1.00
2022-10-17T16:20:14.626Z,1.00
2022-10-17T16:22:44.464Z,1.00
2022-10-17T16:25:32.299Z,1.00
2022-10-17T16:28:00.426Z,1.00
2022-10-17T16:30:29.561Z,1.00
2022-10-17T16:32:57.036Z,1.00
2022-10-17T16:35:26.966Z,1.00
2022-10-17T16:37:54.409Z,1.00
2022-10-17T16:40:21.290Z,1.00
2022-10-17T16:42:48.220Z,1.00
2022-10-17T16:45:18.508Z,1.00
2022-10-17T16:47:45.861Z,1.00
2022-10-17T16:50:13.406Z,1.00
2022-10-17T16:52:40.634Z,1.00
2022-10-17T16:55:08.104Z,1.00
2022-10-17T16:57:35.393Z,1.00
2022-10-17T17:00:02.639Z,1.00
2022-10-17T17:02:29.710Z,1.00
2022-10-17T17:04:56.867Z,1.00
2022-10-17T17:07:24.625Z,1.00
2022-10-17T17:09:51.661Z,1.00
2022-10-17T17:12:18.530Z,1.00
2022-10-17T17:14:45.421Z,1.00
2022-10-17T17:17:19.693Z,1.00
2022-10-17T17:19:57.451Z,1.00
2022-10-17T17:22:24.387Z,1.00
2022-10-17T17:24:51.431Z,1.00
2022-10-17T17:27:18.346Z,1.00
2022-10-17T17:29:45.307Z,1.00
2022-10-17T17:32:13.562Z,1.00
2022-10-17T17:34:40.494Z,1.00
2022-10-17T17:37:08.023Z,1.00
2022-10-17T17:39:35.086Z,1.00
2022-10-17T17:42:04.978Z,1.00
2022-10-17T17:44:32.064Z,1.00
2022-10-17T17:46:59.079Z,1.00
2022-10-17T17:49:25.987Z,1.00
2022-10-17T17:51:52.918Z,1.00
2022-10-17T17:54:19.938Z,1.00
2022-10-17T17:56:46.853Z,1.00
2022-10-17T17:59:13.926Z,1.00
2022-10-17T18:01:41.240Z,1.00
2022-10-17T18:04:09.316Z,1.00
2022-10-17T18:06:37.809Z,1.00
2022-10-17T18:09:06.251Z,1.00
2022-10-17T18:11:33.456Z,1.00
2022-10-17T18:14:03.225Z,1.00
2022-10-17T18:16:32.539Z,1.00
2022-10-17T18:19:04.221Z,1.00
2022-10-17T18:21:34.298Z,1.00
2022-10-17T18:24:01.961Z,1.00
2022-10-17T18:26:28.841Z,1.00
2022-10-17T18:28:55.840Z,1.00
2022-10-17T18:31:26.349Z,1.00
2022-10-17T18:33:55.202Z,1.00
2022-10-17T18:36:23.165Z,1.00
2022-10-17T18:38:50.245Z,1.00
2022-10-17T18:41:20.103Z,1.00
2022-10-17T18:43:48.608Z,1.00
2022-10-17T18:46:20.640Z,1.00
2022-10-17T18:48:48.688Z,1.00
2022-10-17T18:51:18.040Z,1.00
2022-10-17T18:53:47.361Z,1.00
2022-10-17T18:56:14.653Z,1.00
2022-10-17T18:58:42.467Z,1.30
2022-10-17T19:01:15.558Z,1.40
2022-10-17T19:03:47.568Z,1.40
2022-10-17T19:06:18.050Z,1.40
2022-10-17T19:08:45.630Z,1.80
2022-10-17T19:11:15.336Z,1.80
2022-10-17T19:13:43.154Z,1.70
2022-10-17T19:16:14.272Z,1.70
2022-10-17T19:18:41.466Z,1.60
2022-10-17T19:21:10.319Z,1.60
2022-10-17T19:23:38.465Z,1.50
2022-10-17T19:26:10.537Z,1.60
2022-10-17T19:28:39.682Z,1.40
2022-10-17T19:31:07.082Z,1.50
2022-10-17T19:33:34.847Z,1.80
2022-10-17T19:36:07.737Z,1.50
2022-10-17T19:38:35.650Z,1.50
2022-10-17T19:41:10.450Z,1.70
2022-10-17T19:43:38.979Z,1.50
2022-10-17T19:46:08.886Z,1.50
2022-10-17T19:48:37.541Z,2.10
2022-10-17T19:51:05.937Z,2.60
2022-10-17T19:53:33.589Z,2.80
2022-10-17T19:56:00.971Z,3.10
2022-10-17T19:58:28.566Z,3.60
2022-10-17T20:00:58.479Z,3.90
2022-10-17T20:03:25.720Z,3.90
2022-10-17T20:05:53.105Z,4.20
2022-10-17T20:08:20.445Z,4.30
2022-10-17T20:10:47.793Z,4.30
2022-10-17T20:13:15.072Z,4.50
2022-10-17T20:15:42.021Z,4.70
2022-10-17T20:18:09.298Z,4.90
2022-10-17T20:20:37.293Z,5.10
2022-10-17T20:23:04.839Z,5.10
2022-10-17T20:25:33.450Z,5.10
2022-10-17T20:28:00.495Z,5.10
2022-10-17T20:30:27.688Z,5.40
2022-10-17T20:32:55.718Z,5.80
2022-10-17T20:35:23.017Z,5.90
2022-10-17T20:37:50.088Z,6.10
2022-10-17T20:43:07.020Z,6.60
2022-10-17T20:45:50.670Z,6.70
2022-10-17T20:48:19.030Z,7.00
2022-10-17T20:50:45.913Z,7.20
2022-10-17T20:56:09.018Z,7.40
2022-10-17T20:58:36.157Z,7.50
2022-10-17T21:01:08.385Z,7.80
2022-10-17T21:03:42.447Z,7.80
2022-10-17T21:06:13.214Z,8.00
2022-10-17T21:08:40.465Z,8.20
2022-10-17T21:11:15.849Z,8.50
2022-10-17T21:13:43.167Z,8.50
2022-10-17T21:16:15.483Z,8.80
2022-10-17T21:18:42.950Z,8.80
2022-10-17T21:21:22.158Z,9.20
2022-10-17T21:23:50.627Z,10.00
2022-10-17T21:26:19.058Z,9.70
2022-10-17T21:28:48.032Z,10.30
2022-10-17T21:31:24.561Z,10.80
2022-10-17T21:33:56.483Z,11.20
2022-10-17T21:36:24.898Z,11.60
2022-10-17T21:38:53.398Z,11.80
2022-10-17T21:41:22.532Z,12.10
2022-10-17T21:43:54.065Z,12.30
2022-10-17T21:46:21.654Z,12.40
2022-10-17T21:48:49.403Z,12.60
2022-10-17T21:51:18.623Z,13.80
2022-10-17T21:53:45.793Z,12.90
2022-10-17T21:56:15.603Z,13.00
2022-10-17T21:58:43.571Z,13.00
2022-10-17T22:01:13.313Z,13.20
2022-10-17T22:03:45.845Z,13.30
2022-10-17T22:09:13.501Z,13.40
2022-10-17T22:11:40.525Z,13.60
2022-10-17T22:14:11.601Z,13.70
2022-10-17T22:16:38.680Z,13.70
2022-10-17T22:19:07.041Z,13.80
2022-10-17T22:21:36.347Z,13.70
2022-10-17T22:24:06.415Z,13.50
2022-10-17T22:26:35.895Z,13.60
2022-10-17T22:29:04.470Z,13.80
2022-10-17T22:31:31.769Z,14.00
2022-10-17T22:33:58.765Z,14.30
2022-10-17T22:36:25.917Z,14.50
2022-10-17T22:38:52.815Z,14.50
2022-10-17T22:41:20.048Z,14.70
2022-10-17T22:43:47.169Z,15.00
2022-10-17T22:46:16.704Z,15.00
2022-10-17T22:48:44.009Z,15.00
2022-10-17T22:51:11.730Z,15.00
2022-10-17T22:53:39.101Z,15.00
2022-10-17T22:56:10.009Z,15.00
2022-10-17T22:58:37.128Z,15.10
2022-10-17T23:01:05.681Z,15.20
2022-10-17T23:03:33.753Z,15.10
2022-10-17T23:06:01.157Z,15.30
2022-10-17T23:08:28.557Z,15.30
2022-10-17T23:10:55.455Z,15.00
2022-10-17T23:13:22.515Z,14.70
2022-10-17T23:15:57.235Z,14.80
2022-10-17T23:18:26.575Z,14.90
2022-10-17T23:20:53.893Z,15.30
2022-10-17T23:23:21.666Z,15.50
2022-10-17T23:25:49.482Z,15.50
2022-10-17T23:28:17.090Z,15.50
2022-10-17T23:30:44.296Z,15.40
2022-10-17T23:33:13.210Z,15.50
2022-10-17T23:35:40.850Z,15.60
2022-10-17T23:38:07.948Z,15.70
2022-10-17T23:40:35.423Z,16.00
2022-10-17T23:43:03.936Z,16.10
2022-10-17T23:45:34.796Z,16.30
2022-10-17T23:48:05.068Z,16.40
2022-10-17T23:50:32.029Z,16.60
2022-10-17T23:52:58.972Z,16.70
2022-10-17T23:55:25.918Z,16.70
2022-10-17T23:57:53.087Z,16.90
